Accueil
METAR-TAF:

METAR-TAF

Aéroports :

Keene, New Hampshire, États-Unis

latitude: 42-54N, longitude: 072-16W, altitude: 149 m

Observation

Le bulletin a été fait il y a 43 minutes, à 19:11 UTC
Vent 9 kt de nord-ouest avec des rafales jusqu'à 19 kt
Température 4°C
Humidité 81%
Pression 990 hPa
Visibilité: 16.1 km
Quelques nuages à une hauteur de 1300 ft
Nuages épars à une hauteur de 2900 ft
Ciel couvert à une hauteur de 3600 ft
pluie faible

METAR: KEEN 101911Z AUTO 32009G19KT 10SM -RA FEW013 SCT029 OVC036 04/01 A2922 RMK AO2 WSHFT 1851 P0000 $

Heure: 15:54 (19:54 UTC)


TAF: absent

Observations et prévisions météorologiques de plus de 4000 aéroports (messages METAR et TAF).

Les stations disponibles sont représentées par des disques jaunes et rouges sur la carte.

Passer la souris dessus pour voir le nom de la station.

Cliquer dessus pour voir les observations et prévisions météorologiques.

Pour changer de carte: cliquez sur les boutons verts avec une croix noire pour zoomer, sur le bouton vert avec un tiret pour effectuer un zoom arrière, ou sur les flèches vertes pour les cartes adjacentes.


METAR-TAF: